sensor_id;sensor_type;location;lat;lon;timestamp;P1;durP1;ratioP1;P2;durP2;ratioP2
52432;SDS011;38352;53.244;6.594;2023-04-03T00:01:32;4.20;;;1.42;;
52432;SDS011;38352;53.244;6.594;2023-04-03T00:03:58;2.42;;;1.80;;
52432;SDS011;38352;53.244;6.594;2023-04-03T00:06:24;5.70;;;1.52;;
52432;SDS011;38352;53.244;6.594;2023-04-03T00:08:51;1.65;;;0.90;;
52432;SDS011;38352;53.244;6.594;2023-04-03T00:11:17;3.72;;;0.93;;
52432;SDS011;38352;53.244;6.594;2023-04-03T00:13:45;4.20;;;1.70;;
52432;SDS011;38352;53.244;6.594;2023-04-03T00:16:11;5.43;;;1.20;;
52432;SDS011;38352;53.244;6.594;2023-04-03T00:18:37;4.45;;;1.20;;
52432;SDS011;38352;53.244;6.594;2023-04-03T00:21:05;2.92;;;1.20;;
52432;SDS011;38352;53.244;6.594;2023-04-03T00:23:31;3.05;;;0.98;;
52432;SDS011;38352;53.244;6.594;2023-04-03T00:25:57;4.13;;;1.10;;
52432;SDS011;38352;53.244;6.594;2023-04-03T00:28:23;2.95;;;1.20;;
52432;SDS011;38352;53.244;6.594;2023-04-03T00:30:50;4.47;;;1.15;;
52432;SDS011;38352;53.244;6.594;2023-04-03T00:33:17;2.85;;;1.00;;
52432;SDS011;38352;53.244;6.594;2023-04-03T00:35:46;3.40;;;1.23;;
52432;SDS011;38352;53.244;6.594;2023-04-03T00:38:13;2.97;;;1.33;;
52432;SDS011;38352;53.244;6.594;2023-04-03T00:40:42;1.98;;;1.02;;
52432;SDS011;38352;53.244;6.594;2023-04-03T00:43:18;3.38;;;1.25;;
52432;SDS011;38352;53.244;6.594;2023-04-03T00:45:46;4.68;;;1.00;;
52432;SDS011;38352;53.244;6.594;2023-04-03T00:48:31;3.97;;;1.20;;
52432;SDS011;38352;53.244;6.594;2023-04-03T00:50:58;2.50;;;1.20;;
52432;SDS011;38352;53.244;6.594;2023-04-03T00:53:27;2.92;;;1.20;;
52432;SDS011;38352;53.244;6.594;2023-04-03T00:55:54;4.18;;;1.40;;
52432;SDS011;38352;53.244;6.594;2023-04-03T00:58:21;2.53;;;1.00;;
52432;SDS011;38352;53.244;6.594;2023-04-03T01:00:53;4.40;;;1.30;;
52432;SDS011;38352;53.244;6.594;2023-04-03T01:03:22;2.65;;;1.17;;
52432;SDS011;38352;53.244;6.594;2023-04-03T01:05:48;3.55;;;1.20;;
52432;SDS011;38352;53.244;6.594;2023-04-03T01:08:15;4.38;;;1.25;;
52432;SDS011;38352;53.244;6.594;2023-04-03T01:10:41;5.15;;;1.20;;
52432;SDS011;38352;53.244;6.594;2023-04-03T01:13:24;4.75;;;1.15;;
52432;SDS011;38352;53.244;6.594;2023-04-03T01:15:51;4.60;;;1.37;;
52432;SDS011;38352;53.244;6.594;2023-04-03T01:18:17;3.90;;;1.20;;
52432;SDS011;38352;53.244;6.594;2023-04-03T01:20:47;5.18;;;1.38;;
52432;SDS011;38352;53.244;6.594;2023-04-03T01:28:30;5.20;;;1.50;;
52432;SDS011;38352;53.244;6.594;2023-04-03T01:33:42;6.72;;;1.75;;
52432;SDS011;38352;53.244;6.594;2023-04-03T01:36:12;3.60;;;1.45;;
52432;SDS011;38352;53.244;6.594;2023-04-03T01:38:39;5.60;;;1.90;;
52432;SDS011;38352;53.244;6.594;2023-04-03T01:41:05;4.75;;;1.40;;
52432;SDS011;38352;53.244;6.594;2023-04-03T01:43:31;8.27;;;2.22;;
52432;SDS011;38352;53.244;6.594;2023-04-03T01:45:57;4.18;;;1.77;;
52432;SDS011;38352;53.244;6.594;2023-04-03T01:48:23;4.40;;;1.52;;
52432;SDS011;38352;53.244;6.594;2023-04-03T01:50:49;4.45;;;1.40;;
52432;SDS011;38352;53.244;6.594;2023-04-03T01:53:16;4.18;;;1.60;;
52432;SDS011;38352;53.244;6.594;2023-04-03T01:55:42;4.32;;;1.50;;
52432;SDS011;38352;53.244;6.594;2023-04-03T01:58:08;5.53;;;1.67;;
52432;SDS011;38352;53.244;6.594;2023-04-03T02:00:35;5.68;;;1.20;;
52432;SDS011;38352;53.244;6.594;2023-04-03T02:03:02;4.28;;;1.50;;
52432;SDS011;38352;53.244;6.594;2023-04-03T02:05:28;6.30;;;1.70;;
52432;SDS011;38352;53.244;6.594;2023-04-03T02:07:54;4.18;;;1.35;;
52432;SDS011;38352;53.244;6.594;2023-04-03T02:10:20;6.75;;;2.03;;
52432;SDS011;38352;53.244;6.594;2023-04-03T02:12:46;4.68;;;1.73;;
52432;SDS011;38352;53.244;6.594;2023-04-03T02:15:12;4.43;;;1.60;;
52432;SDS011;38352;53.244;6.594;2023-04-03T02:17:38;4.07;;;1.35;;
52432;SDS011;38352;53.244;6.594;2023-04-03T02:20:04;7.07;;;1.85;;
52432;SDS011;38352;53.244;6.594;2023-04-03T02:22:31;5.57;;;2.10;;
52432;SDS011;38352;53.244;6.594;2023-04-03T02:24:57;3.47;;;1.55;;
52432;SDS011;38352;53.244;6.594;2023-04-03T02:27:23;6.82;;;2.00;;
52432;SDS011;38352;53.244;6.594;2023-04-03T02:29:50;6.78;;;2.08;;
52432;SDS011;38352;53.244;6.594;2023-04-03T02:32:16;6.75;;;1.75;;
52432;SDS011;38352;53.244;6.594;2023-04-03T02:34:42;4.05;;;1.40;;
52432;SDS011;38352;53.244;6.594;2023-04-03T02:37:08;3.10;;;1.15;;
52432;SDS011;38352;53.244;6.594;2023-04-03T02:39:34;4.80;;;1.50;;
52432;SDS011;38352;53.244;6.594;2023-04-03T02:42:01;5.15;;;1.98;;
52432;SDS011;38352;53.244;6.594;2023-04-03T02:44:27;3.72;;;1.73;;
52432;SDS011;38352;53.244;6.594;2023-04-03T02:46:53;4.95;;;2.10;;
52432;SDS011;38352;53.244;6.594;2023-04-03T02:49:19;6.60;;;2.05;;
52432;SDS011;38352;53.244;6.594;2023-04-03T02:51:45;5.43;;;1.70;;
52432;SDS011;38352;53.244;6.594;2023-04-03T02:54:12;5.55;;;1.58;;
52432;SDS011;38352;53.244;6.594;2023-04-03T02:56:38;7.55;;;1.90;;
52432;SDS011;38352;53.244;6.594;2023-04-03T02:59:04;7.05;;;1.75;;
52432;SDS011;38352;53.244;6.594;2023-04-03T03:01:31;6.95;;;1.90;;
52432;SDS011;38352;53.244;6.594;2023-04-03T03:03:58;7.95;;;2.33;;
52432;SDS011;38352;53.244;6.594;2023-04-03T03:06:24;6.07;;;2.00;;
52432;SDS011;38352;53.244;6.594;2023-04-03T03:08:50;5.07;;;1.90;;
52432;SDS011;38352;53.244;6.594;2023-04-03T03:11:17;4.00;;;1.48;;
52432;SDS011;38352;53.244;6.594;2023-04-03T03:13:43;4.38;;;1.80;;
52432;SDS011;38352;53.244;6.594;2023-04-03T03:16:09;5.13;;;2.38;;
52432;SDS011;38352;53.244;6.594;2023-04-03T03:18:35;6.25;;;1.90;;
52432;SDS011;38352;53.244;6.594;2023-04-03T03:21:02;4.18;;;1.95;;
52432;SDS011;38352;53.244;6.594;2023-04-03T03:23:30;5.20;;;2.05;;
52432;SDS011;38352;53.244;6.594;2023-04-03T03:25:58;3.50;;;1.40;;
52432;SDS011;38352;53.244;6.594;2023-04-03T03:28:24;4.65;;;1.75;;
52432;SDS011;38352;53.244;6.594;2023-04-03T03:30:50;5.35;;;1.83;;
52432;SDS011;38352;53.244;6.594;2023-04-03T03:33:17;4.18;;;1.90;;
52432;SDS011;38352;53.244;6.594;2023-04-03T03:35:44;5.82;;;2.08;;
52432;SDS011;38352;53.244;6.594;2023-04-03T03:38:10;8.27;;;2.53;;
52432;SDS011;38352;53.244;6.594;2023-04-03T03:40:37;6.63;;;2.42;;
52432;SDS011;38352;53.244;6.594;2023-04-03T03:43:03;5.60;;;2.20;;
52432;SDS011;38352;53.244;6.594;2023-04-03T03:45:29;6.55;;;2.15;;
52432;SDS011;38352;53.244;6.594;2023-04-03T03:47:56;6.35;;;1.80;;
52432;SDS011;38352;53.244;6.594;2023-04-03T03:50:22;9.23;;;2.40;;
52432;SDS011;38352;53.244;6.594;2023-04-03T03:52:48;5.22;;;1.90;;
52432;SDS011;38352;53.244;6.594;2023-04-03T03:55:14;7.35;;;2.10;;
52432;SDS011;38352;53.244;6.594;2023-04-03T03:57:40;5.28;;;1.90;;
52432;SDS011;38352;53.244;6.594;2023-04-03T04:00:06;6.30;;;1.83;;
52432;SDS011;38352;53.244;6.594;2023-04-03T04:02:33;7.10;;;2.13;;
52432;SDS011;38352;53.244;6.594;2023-04-03T04:05:00;7.22;;;2.72;;
52432;SDS011;38352;53.244;6.594;2023-04-03T04:07:26;7.28;;;2.28;;
52432;SDS011;38352;53.244;6.594;2023-04-03T04:09:54;5.35;;;2.20;;
52432;SDS011;38352;53.244;6.594;2023-04-03T04:12:20;4.93;;;1.98;;
52432;SDS011;38352;53.244;6.594;2023-04-03T04:14:46;6.72;;;1.98;;
52432;SDS011;38352;53.244;6.594;2023-04-03T04:17:13;7.18;;;2.63;;
52432;SDS011;38352;53.244;6.594;2023-04-03T04:19:39;5.32;;;2.22;;
52432;SDS011;38352;53.244;6.594;2023-04-03T04:22:05;4.93;;;2.20;;
52432;SDS011;38352;53.244;6.594;2023-04-03T04:24:31;6.78;;;2.45;;
52432;SDS011;38352;53.244;6.594;2023-04-03T04:26:58;6.60;;;2.10;;
52432;SDS011;38352;53.244;6.594;2023-04-03T04:29:24;5.10;;;1.83;;
52432;SDS011;38352;53.244;6.594;2023-04-03T04:31:50;6.72;;;2.28;;
52432;SDS011;38352;53.244;6.594;2023-04-03T04:34:16;5.80;;;2.17;;
52432;SDS011;38352;53.244;6.594;2023-04-03T04:36:42;6.03;;;1.73;;
52432;SDS011;38352;53.244;6.594;2023-04-03T04:39:08;4.90;;;2.13;;
52432;SDS011;38352;53.244;6.594;2023-04-03T04:41:34;7.28;;;3.22;;
52432;SDS011;38352;53.244;6.594;2023-04-03T04:44:00;7.68;;;2.22;;
52432;SDS011;38352;53.244;6.594;2023-04-03T04:46:27;9.05;;;2.42;;
52432;SDS011;38352;53.244;6.594;2023-04-03T04:48:53;6.10;;;2.70;;
52432;SDS011;38352;53.244;6.594;2023-04-03T04:51:19;8.50;;;2.70;;
52432;SDS011;38352;53.244;6.594;2023-04-03T04:53:45;7.05;;;3.00;;
52432;SDS011;38352;53.244;6.594;2023-04-03T04:56:11;8.63;;;3.40;;
52432;SDS011;38352;53.244;6.594;2023-04-03T04:58:37;9.27;;;4.20;;
52432;SDS011;38352;53.244;6.594;2023-04-03T05:01:05;7.78;;;3.42;;
52432;SDS011;38352;53.244;6.594;2023-04-03T05:03:32;6.82;;;3.58;;
52432;SDS011;38352;53.244;6.594;2023-04-03T05:05:58;9.90;;;3.70;;
52432;SDS011;38352;53.244;6.594;2023-04-03T05:08:25;7.65;;;3.20;;
52432;SDS011;38352;53.244;6.594;2023-04-03T05:10:51;9.13;;;3.50;;
52432;SDS011;38352;53.244;6.594;2023-04-03T05:13:18;8.30;;;2.55;;
52432;SDS011;38352;53.244;6.594;2023-04-03T05:15:44;8.07;;;2.92;;
52432;SDS011;38352;53.244;6.594;2023-04-03T05:18:10;10.13;;;3.40;;
52432;SDS011;38352;53.244;6.594;2023-04-03T05:20:36;11.43;;;4.03;;
52432;SDS011;38352;53.244;6.594;2023-04-03T05:23:03;8.63;;;3.33;;
52432;SDS011;38352;53.244;6.594;2023-04-03T05:25:29;8.23;;;3.10;;
52432;SDS011;38352;53.244;6.594;2023-04-03T05:27:55;6.32;;;2.70;;
52432;SDS011;38352;53.244;6.594;2023-04-03T05:30:21;5.88;;;2.88;;
52432;SDS011;38352;53.244;6.594;2023-04-03T05:32:48;6.82;;;2.85;;
52432;SDS011;38352;53.244;6.594;2023-04-03T05:35:14;6.60;;;2.67;;
52432;SDS011;38352;53.244;6.594;2023-04-03T05:37:40;8.88;;;3.17;;
52432;SDS011;38352;53.244;6.594;2023-04-03T05:40:06;9.48;;;2.45;;
52432;SDS011;38352;53.244;6.594;2023-04-03T05:42:33;7.20;;;2.90;;
52432;SDS011;38352;53.244;6.594;2023-04-03T05:44:59;10.50;;;2.95;;
52432;SDS011;38352;53.244;6.594;2023-04-03T05:47:25;7.40;;;3.07;;
52432;SDS011;38352;53.244;6.594;2023-04-03T05:49:52;5.15;;;2.38;;
52432;SDS011;38352;53.244;6.594;2023-04-03T05:52:22;10.20;;;3.38;;
52432;SDS011;38352;53.244;6.594;2023-04-03T05:54:49;6.70;;;2.55;;
52432;SDS011;38352;53.244;6.594;2023-04-03T05:57:15;6.15;;;2.45;;
52432;SDS011;38352;53.244;6.594;2023-04-03T05:59:42;13.00;;;5.22;;
52432;SDS011;38352;53.244;6.594;2023-04-03T06:02:12;8.05;;;3.13;;
52432;SDS011;38352;53.244;6.594;2023-04-03T06:04:38;7.65;;;2.75;;
52432;SDS011;38352;53.244;6.594;2023-04-03T06:07:04;10.70;;;2.83;;
52432;SDS011;38352;53.244;6.594;2023-04-03T06:09:30;11.45;;;2.97;;
52432;SDS011;38352;53.244;6.594;2023-04-03T06:11:57;7.03;;;4.05;;
52432;SDS011;38352;53.244;6.594;2023-04-03T06:14:24;7.70;;;2.70;;
52432;SDS011;38352;53.244;6.594;2023-04-03T06:16:50;6.07;;;2.80;;
52432;SDS011;38352;53.244;6.594;2023-04-03T06:19:16;9.02;;;2.58;;
52432;SDS011;38352;53.244;6.594;2023-04-03T06:21:43;9.82;;;4.30;;
52432;SDS011;38352;53.244;6.594;2023-04-03T06:24:09;6.28;;;2.53;;
52432;SDS011;38352;53.244;6.594;2023-04-03T06:26:38;7.22;;;2.42;;
52432;SDS011;38352;53.244;6.594;2023-04-03T06:29:04;6.45;;;2.60;;
52432;SDS011;38352;53.244;6.594;2023-04-03T06:31:30;9.88;;;3.10;;
52432;SDS011;38352;53.244;6.594;2023-04-03T06:33:56;5.78;;;2.28;;
52432;SDS011;38352;53.244;6.594;2023-04-03T06:36:22;10.90;;;2.88;;
52432;SDS011;38352;53.244;6.594;2023-04-03T06:38:48;7.95;;;2.67;;
52432;SDS011;38352;53.244;6.594;2023-04-03T06:41:14;9.02;;;2.85;;
52432;SDS011;38352;53.244;6.594;2023-04-03T06:43:41;10.13;;;2.72;;
52432;SDS011;38352;53.244;6.594;2023-04-03T06:46:12;7.78;;;3.08;;
52432;SDS011;38352;53.244;6.594;2023-04-03T06:48:39;12.18;;;3.20;;
52432;SDS011;38352;53.244;6.594;2023-04-03T06:51:06;8.98;;;3.45;;
52432;SDS011;38352;53.244;6.594;2023-04-03T06:53:32;11.60;;;3.53;;
52432;SDS011;38352;53.244;6.594;2023-04-03T06:55:58;7.47;;;2.53;;
52432;SDS011;38352;53.244;6.594;2023-04-03T06:58:24;11.18;;;3.22;;
52432;SDS011;38352;53.244;6.594;2023-04-03T07:00:50;10.27;;;2.90;;
52432;SDS011;38352;53.244;6.594;2023-04-03T07:03:16;9.57;;;3.08;;
52432;SDS011;38352;53.244;6.594;2023-04-03T07:05:43;7.72;;;3.75;;
52432;SDS011;38352;53.244;6.594;2023-04-03T07:08:09;8.88;;;3.83;;
52432;SDS011;38352;53.244;6.594;2023-04-03T07:10:37;7.40;;;2.78;;
52432;SDS011;38352;53.244;6.594;2023-04-03T07:13:03;6.32;;;3.05;;
52432;SDS011;38352;53.244;6.594;2023-04-03T07:15:29;8.75;;;3.40;;
52432;SDS011;38352;53.244;6.594;2023-04-03T07:17:55;8.30;;;2.90;;
52432;SDS011;38352;53.244;6.594;2023-04-03T07:20:21;8.85;;;2.88;;
52432;SDS011;38352;53.244;6.594;2023-04-03T07:22:47;7.10;;;2.80;;
52432;SDS011;38352;53.244;6.594;2023-04-03T07:25:13;8.02;;;3.05;;
52432;SDS011;38352;53.244;6.594;2023-04-03T07:27:40;9.38;;;3.38;;
52432;SDS011;38352;53.244;6.594;2023-04-03T07:30:06;5.85;;;2.40;;
52432;SDS011;38352;53.244;6.594;2023-04-03T07:32:32;6.28;;;2.70;;
52432;SDS011;38352;53.244;6.594;2023-04-03T07:34:58;6.63;;;2.30;;
52432;SDS011;38352;53.244;6.594;2023-04-03T07:37:25;6.43;;;2.22;;
52432;SDS011;38352;53.244;6.594;2023-04-03T07:39:51;7.15;;;2.60;;
52432;SDS011;38352;53.244;6.594;2023-04-03T07:42:17;9.70;;;2.60;;
52432;SDS011;38352;53.244;6.594;2023-04-03T07:44:43;11.23;;;2.85;;
52432;SDS011;38352;53.244;6.594;2023-04-03T07:47:10;4.95;;;1.88;;
52432;SDS011;38352;53.244;6.594;2023-04-03T07:49:38;7.00;;;2.40;;
52432;SDS011;38352;53.244;6.594;2023-04-03T07:52:05;8.60;;;2.50;;
52432;SDS011;38352;53.244;6.594;2023-04-03T07:54:33;6.20;;;2.88;;
52432;SDS011;38352;53.244;6.594;2023-04-03T07:57:00;8.38;;;2.58;;
52432;SDS011;38352;53.244;6.594;2023-04-03T07:59:26;6.65;;;2.95;;
52432;SDS011;38352;53.244;6.594;2023-04-03T08:01:52;10.05;;;2.83;;
52432;SDS011;38352;53.244;6.594;2023-04-03T08:04:18;7.65;;;2.63;;
52432;SDS011;38352;53.244;6.594;2023-04-03T08:06:44;5.88;;;2.17;;
52432;SDS011;38352;53.244;6.594;2023-04-03T08:09:10;5.68;;;2.03;;
52432;SDS011;38352;53.244;6.594;2023-04-03T08:11:38;6.57;;;2.53;;
52432;SDS011;38352;53.244;6.594;2023-04-03T08:14:04;7.50;;;2.20;;
52432;SDS011;38352;53.244;6.594;2023-04-03T08:16:31;6.68;;;3.08;;
52432;SDS011;38352;53.244;6.594;2023-04-03T08:18:57;9.45;;;2.95;;
52432;SDS011;38352;53.244;6.594;2023-04-03T08:21:24;7.30;;;2.28;;
52432;SDS011;38352;53.244;6.594;2023-04-03T08:23:51;7.05;;;1.90;;
52432;SDS011;38352;53.244;6.594;2023-04-03T08:26:18;6.95;;;2.67;;
52432;SDS011;38352;53.244;6.594;2023-04-03T08:28:46;5.95;;;2.20;;
52432;SDS011;38352;53.244;6.594;2023-04-03T08:31:14;8.90;;;2.50;;
52432;SDS011;38352;53.244;6.594;2023-04-03T08:33:41;7.43;;;2.17;;
52432;SDS011;38352;53.244;6.594;2023-04-03T08:36:08;5.82;;;2.40;;
52432;SDS011;38352;53.244;6.594;2023-04-03T08:38:41;8.18;;;2.80;;
52432;SDS011;38352;53.244;6.594;2023-04-03T08:43:39;10.85;;;3.72;;
52432;SDS011;38352;53.244;6.594;2023-04-03T08:46:08;7.50;;;2.47;;
52432;SDS011;38352;53.244;6.594;2023-04-03T08:48:39;10.93;;;2.35;;
52432;SDS011;38352;53.244;6.594;2023-04-03T08:51:19;9.60;;;2.75;;
52432;SDS011;38352;53.244;6.594;2023-04-03T08:53:56;5.32;;;2.08;;
52432;SDS011;38352;53.244;6.594;2023-04-03T08:56:24;7.80;;;1.92;;
52432;SDS011;38352;53.244;6.594;2023-04-03T08:58:52;3.40;;;1.45;;
52432;SDS011;38352;53.244;6.594;2023-04-03T09:01:33;5.38;;;1.80;;
52432;SDS011;38352;53.244;6.594;2023-04-03T09:04:00;5.25;;;1.98;;
52432;SDS011;38352;53.244;6.594;2023-04-03T09:06:28;5.53;;;2.05;;
52432;SDS011;38352;53.244;6.594;2023-04-03T09:11:27;5.05;;;1.60;;
52432;SDS011;38352;53.244;6.594;2023-04-03T09:19:18;4.65;;;1.30;;
52432;SDS011;38352;53.244;6.594;2023-04-03T09:21:46;6.38;;;1.27;;
52432;SDS011;38352;53.244;6.594;2023-04-03T09:24:14;4.70;;;1.60;;
52432;SDS011;38352;53.244;6.594;2023-04-03T09:27:23;8.02;;;1.90;;
52432;SDS011;38352;53.244;6.594;2023-04-03T09:29:30;4.65;;;1.50;;
52432;SDS011;38352;53.244;6.594;2023-04-03T09:31:59;4.28;;;1.52;;
52432;SDS011;38352;53.244;6.594;2023-04-03T09:34:27;5.20;;;1.75;;
52432;SDS011;38352;53.244;6.594;2023-04-03T09:36:56;3.13;;;1.40;;
52432;SDS011;38352;53.244;6.594;2023-04-03T09:39:24;4.18;;;1.88;;
52432;SDS011;38352;53.244;6.594;2023-04-03T09:44:28;4.45;;;1.60;;
52432;SDS011;38352;53.244;6.594;2023-04-03T09:46:55;4.93;;;1.50;;
52432;SDS011;38352;53.244;6.594;2023-04-03T09:49:21;5.18;;;1.90;;
52432;SDS011;38352;53.244;6.594;2023-04-03T09:51:48;9.82;;;2.72;;
52432;SDS011;38352;53.244;6.594;2023-04-03T09:54:25;5.32;;;1.60;;
52432;SDS011;38352;53.244;6.594;2023-04-03T09:56:52;7.97;;;1.77;;
52432;SDS011;38352;53.244;6.594;2023-04-03T09:59:20;4.65;;;1.52;;
52432;SDS011;38352;53.244;6.594;2023-04-03T10:01:57;5.85;;;1.80;;
52432;SDS011;38352;53.244;6.594;2023-04-03T10:04:24;2.95;;;1.60;;
52432;SDS011;38352;53.244;6.594;2023-04-03T10:06:51;4.25;;;1.75;;
52432;SDS011;38352;53.244;6.594;2023-04-03T10:12:05;3.78;;;1.40;;
52432;SDS011;38352;53.244;6.594;2023-04-03T10:14:36;4.40;;;1.60;;
52432;SDS011;38352;53.244;6.594;2023-04-03T10:25:11;4.10;;;1.38;;
52432;SDS011;38352;53.244;6.594;2023-04-03T10:30:00;5.90;;;1.35;;
52432;SDS011;38352;53.244;6.594;2023-04-03T10:43:18;5.65;;;1.45;;
52432;SDS011;38352;53.244;6.594;2023-04-03T10:51:20;5.75;;;1.38;;
52432;SDS011;38352;53.244;6.594;2023-04-03T11:01:31;3.13;;;1.10;;
52432;SDS011;38352;53.244;6.594;2023-04-03T11:03:59;3.47;;;1.17;;
52432;SDS011;38352;53.244;6.594;2023-04-03T11:06:30;3.33;;;1.08;;
52432;SDS011;38352;53.244;6.594;2023-04-03T11:09:07;3.65;;;1.08;;
52432;SDS011;38352;53.244;6.594;2023-04-03T11:11:39;5.90;;;1.52;;
52432;SDS011;38352;53.244;6.594;2023-04-03T11:14:24;2.08;;;0.90;;
52432;SDS011;38352;53.244;6.594;2023-04-03T11:17:38;1.98;;;0.98;;
52432;SDS011;38352;53.244;6.594;2023-04-03T11:19:49;2.65;;;1.00;;
52432;SDS011;38352;53.244;6.594;2023-04-03T11:22:53;3.60;;;1.20;;
52432;SDS011;38352;53.244;6.594;2023-04-03T11:27:42;3.85;;;1.10;;
52432;SDS011;38352;53.244;6.594;2023-04-03T11:35:29;1.83;;;1.00;;
52432;SDS011;38352;53.244;6.594;2023-04-03T11:37:56;4.50;;;1.20;;
52432;SDS011;38352;53.244;6.594;2023-04-03T11:40:31;3.08;;;1.10;;
52432;SDS011;38352;53.244;6.594;2023-04-03T11:45:34;3.20;;;0.98;;
52432;SDS011;38352;53.244;6.594;2023-04-03T11:50:38;2.83;;;1.20;;
52432;SDS011;38352;53.244;6.594;2023-04-03T11:58:11;2.38;;;1.08;;
52432;SDS011;38352;53.244;6.594;2023-04-03T12:05:54;3.25;;;1.35;;
52432;SDS011;38352;53.244;6.594;2023-04-03T12:09:10;3.00;;;1.38;;
52432;SDS011;38352;53.244;6.594;2023-04-03T12:14:01;3.28;;;1.00;;
52432;SDS011;38352;53.244;6.594;2023-04-03T12:16:30;2.83;;;0.85;;
52432;SDS011;38352;53.244;6.594;2023-04-03T12:18:59;3.15;;;1.20;;
52432;SDS011;38352;53.244;6.594;2023-04-03T12:24:01;4.25;;;0.90;;
52432;SDS011;38352;53.244;6.594;2023-04-03T12:26:32;4.10;;;1.00;;
52432;SDS011;38352;53.244;6.594;2023-04-03T12:29:01;6.20;;;1.70;;
52432;SDS011;38352;53.244;6.594;2023-04-03T12:31:33;4.07;;;1.15;;
52432;SDS011;38352;53.244;6.594;2023-04-03T12:37:07;3.75;;;0.95;;
52432;SDS011;38352;53.244;6.594;2023-04-03T12:44:56;1.77;;;0.82;;
52432;SDS011;38352;53.244;6.594;2023-04-03T12:47:28;6.47;;;3.40;;
52432;SDS011;38352;53.244;6.594;2023-04-03T12:49:57;2.28;;;1.08;;
52432;SDS011;38352;53.244;6.594;2023-04-03T12:54:56;4.30;;;1.20;;
52432;SDS011;38352;53.244;6.594;2023-04-03T12:57:25;1.90;;;0.93;;
52432;SDS011;38352;53.244;6.594;2023-04-03T12:59:55;3.55;;;1.48;;
52432;SDS011;38352;53.244;6.594;2023-04-03T13:02:23;3.75;;;1.17;;
52432;SDS011;38352;53.244;6.594;2023-04-03T13:04:50;5.13;;;1.30;;
52432;SDS011;38352;53.244;6.594;2023-04-03T13:12:16;3.03;;;1.00;;
52432;SDS011;38352;53.244;6.594;2023-04-03T13:14:56;3.63;;;1.10;;
52432;SDS011;38352;53.244;6.594;2023-04-03T13:17:23;4.95;;;0.90;;
52432;SDS011;38352;53.244;6.594;2023-04-03T13:19:49;2.78;;;0.80;;
52432;SDS011;38352;53.244;6.594;2023-04-03T13:24:49;4.43;;;1.13;;
52432;SDS011;38352;53.244;6.594;2023-04-03T13:27:15;4.78;;;1.00;;
52432;SDS011;38352;53.244;6.594;2023-04-03T13:29:42;3.28;;;1.02;;
52432;SDS011;38352;53.244;6.594;2023-04-03T13:32:14;3.08;;;1.02;;
52432;SDS011;38352;53.244;6.594;2023-04-03T13:34:43;2.47;;;0.90;;
52432;SDS011;38352;53.244;6.594;2023-04-03T13:37:20;2.72;;;0.95;;
52432;SDS011;38352;53.244;6.594;2023-04-03T13:39:56;3.42;;;1.08;;
52432;SDS011;38352;53.244;6.594;2023-04-03T13:42:29;4.28;;;1.08;;
52432;SDS011;38352;53.244;6.594;2023-04-03T13:47:42;2.78;;;1.40;;
52432;SDS011;38352;53.244;6.594;2023-04-03T13:52:42;5.03;;;2.00;;
52432;SDS011;38352;53.244;6.594;2023-04-03T13:57:51;4.55;;;1.70;;
52432;SDS011;38352;53.244;6.594;2023-04-03T14:00:28;3.92;;;1.40;;
52432;SDS011;38352;53.244;6.594;2023-04-03T14:02:56;3.15;;;1.38;;
52432;SDS011;38352;53.244;6.594;2023-04-03T14:05:22;2.65;;;1.23;;
52432;SDS011;38352;53.244;6.594;2023-04-03T14:07:53;3.17;;;1.20;;
52432;SDS011;38352;53.244;6.594;2023-04-03T14:10:20;3.00;;;1.75;;
52432;SDS011;38352;53.244;6.594;2023-04-03T14:12:47;5.57;;;1.40;;
52432;SDS011;38352;53.244;6.594;2023-04-03T14:15:22;4.10;;;1.50;;
52432;SDS011;38352;53.244;6.594;2023-04-03T14:17:50;3.40;;;1.38;;
52432;SDS011;38352;53.244;6.594;2023-04-03T14:20:20;3.83;;;1.30;;
52432;SDS011;38352;53.244;6.594;2023-04-03T14:22:47;3.15;;;1.17;;
52432;SDS011;38352;53.244;6.594;2023-04-03T14:25:14;1.88;;;0.80;;
52432;SDS011;38352;53.244;6.594;2023-04-03T14:27:44;3.63;;;1.10;;
52432;SDS011;38352;53.244;6.594;2023-04-03T14:30:19;3.83;;;1.10;;
52432;SDS011;38352;53.244;6.594;2023-04-03T14:32:46;3.90;;;1.20;;
52432;SDS011;38352;53.244;6.594;2023-04-03T14:35:13;3.28;;;1.00;;
52432;SDS011;38352;53.244;6.594;2023-04-03T14:37:39;4.40;;;1.27;;
52432;SDS011;38352;53.244;6.594;2023-04-03T14:40:06;3.83;;;1.23;;
52432;SDS011;38352;53.244;6.594;2023-04-03T14:42:35;2.13;;;1.10;;
52432;SDS011;38352;53.244;6.594;2023-04-03T14:45:03;3.78;;;1.20;;
52432;SDS011;38352;53.244;6.594;2023-04-03T14:47:29;3.35;;;1.30;;
52432;SDS011;38352;53.244;6.594;2023-04-03T14:49:56;3.50;;;1.02;;
52432;SDS011;38352;53.244;6.594;2023-04-03T14:52:23;4.32;;;1.10;;
52432;SDS011;38352;53.244;6.594;2023-04-03T14:54:50;3.38;;;1.30;;
52432;SDS011;38352;53.244;6.594;2023-04-03T14:57:17;4.22;;;1.20;;
52432;SDS011;38352;53.244;6.594;2023-04-03T14:59:44;5.13;;;1.33;;
52432;SDS011;38352;53.244;6.594;2023-04-03T15:02:32;2.05;;;1.00;;
52432;SDS011;38352;53.244;6.594;2023-04-03T15:04:57;3.28;;;1.10;;
52432;SDS011;38352;53.244;6.594;2023-04-03T15:07:25;2.72;;;1.20;;
52432;SDS011;38352;53.244;6.594;2023-04-03T15:09:53;2.90;;;1.15;;
52432;SDS011;38352;53.244;6.594;2023-04-03T15:12:21;2.75;;;1.17;;
52432;SDS011;38352;53.244;6.594;2023-04-03T15:14:48;2.95;;;1.20;;
52432;SDS011;38352;53.244;6.594;2023-04-03T15:17:15;2.38;;;0.85;;
52432;SDS011;38352;53.244;6.594;2023-04-03T15:19:42;2.17;;;0.90;;
52432;SDS011;38352;53.244;6.594;2023-04-03T15:22:15;4.45;;;1.40;;
52432;SDS011;38352;53.244;6.594;2023-04-03T15:24:41;3.40;;;1.03;;
52432;SDS011;38352;53.244;6.594;2023-04-03T15:27:08;1.95;;;1.00;;
52432;SDS011;38352;53.244;6.594;2023-04-03T15:29:34;5.25;;;1.00;;
52432;SDS011;38352;53.244;6.594;2023-04-03T15:32:01;2.95;;;1.10;;
52432;SDS011;38352;53.244;6.594;2023-04-03T15:34:27;1.85;;;0.93;;
52432;SDS011;38352;53.244;6.594;2023-04-03T15:36:54;3.05;;;0.88;;
52432;SDS011;38352;53.244;6.594;2023-04-03T15:39:20;2.58;;;0.90;;
52432;SDS011;38352;53.244;6.594;2023-04-03T15:41:48;2.08;;;1.10;;
52432;SDS011;38352;53.244;6.594;2023-04-03T15:44:14;3.67;;;1.30;;
52432;SDS011;38352;53.244;6.594;2023-04-03T15:46:42;4.32;;;1.02;;
52432;SDS011;38352;53.244;6.594;2023-04-03T15:49:08;5.00;;;1.02;;
52432;SDS011;38352;53.244;6.594;2023-04-03T15:51:35;3.20;;;1.50;;
52432;SDS011;38352;53.244;6.594;2023-04-03T15:54:01;4.60;;;1.20;;
52432;SDS011;38352;53.244;6.594;2023-04-03T15:56:27;3.88;;;1.60;;
52432;SDS011;38352;53.244;6.594;2023-04-03T15:58:53;3.85;;;1.30;;
52432;SDS011;38352;53.244;6.594;2023-04-03T16:01:19;2.70;;;1.02;;
52432;SDS011;38352;53.244;6.594;2023-04-03T16:03:46;5.35;;;1.58;;
52432;SDS011;38352;53.244;6.594;2023-04-03T16:06:13;4.13;;;1.92;;
52432;SDS011;38352;53.244;6.594;2023-04-03T16:08:39;5.38;;;2.22;;
52432;SDS011;38352;53.244;6.594;2023-04-03T16:11:05;3.33;;;1.73;;
52432;SDS011;38352;53.244;6.594;2023-04-03T16:13:31;3.33;;;1.50;;
52432;SDS011;38352;53.244;6.594;2023-04-03T16:15:58;2.70;;;1.23;;
52432;SDS011;38352;53.244;6.594;2023-04-03T16:18:25;3.47;;;1.10;;
52432;SDS011;38352;53.244;6.594;2023-04-03T16:20:51;3.33;;;1.55;;
52432;SDS011;38352;53.244;6.594;2023-04-03T16:23:17;6.30;;;2.85;;
52432;SDS011;38352;53.244;6.594;2023-04-03T16:25:44;6.10;;;1.90;;
52432;SDS011;38352;53.244;6.594;2023-04-03T16:28:11;3.58;;;1.33;;
52432;SDS011;38352;53.244;6.594;2023-04-03T16:30:38;4.22;;;1.60;;
52432;SDS011;38352;53.244;6.594;2023-04-03T16:33:05;4.38;;;1.70;;
52432;SDS011;38352;53.244;6.594;2023-04-03T16:35:31;3.53;;;1.90;;
52432;SDS011;38352;53.244;6.594;2023-04-03T16:37:57;2.60;;;1.33;;
52432;SDS011;38352;53.244;6.594;2023-04-03T16:40:23;6.68;;;2.10;;
52432;SDS011;38352;53.244;6.594;2023-04-03T16:42:49;2.75;;;1.42;;
52432;SDS011;38352;53.244;6.594;2023-04-03T16:45:15;4.00;;;1.27;;